createdAt,value
2022-07-31T00:00:34.569Z,101724.09
2022-07-31T00:03:02.211Z,101715.97
2022-07-31T00:05:31.266Z,101704.16
2022-07-31T00:07:59.420Z,101704.16
2022-07-31T00:10:27.135Z,101717.66
2022-07-31T00:12:54.724Z,101714.72
2022-07-31T00:15:22.816Z,101721.97
2022-07-31T00:17:50.580Z,101713.28
2022-07-31T00:20:18.891Z,101714.31
2022-07-31T00:22:49.329Z,101694.00
2022-07-31T00:25:17.751Z,101703.97
2022-07-31T00:27:45.755Z,101706.06
2022-07-31T00:30:14.010Z,101704.66
2022-07-31T00:32:42.145Z,101710.03
2022-07-31T00:35:12.290Z,101703.22
2022-07-31T00:37:40.604Z,101700.53
2022-07-31T00:40:13.177Z,101695.31
2022-07-31T00:42:41.317Z,101702.41
2022-07-31T00:45:10.145Z,101698.88
2022-07-31T00:47:41.181Z,101701.81
2022-07-31T00:50:10.015Z,101704.69
2022-07-31T00:52:37.897Z,101700.97
2022-07-31T00:55:06.246Z,101693.09
2022-07-31T00:57:35.281Z,101694.75
2022-07-31T01:00:02.876Z,101685.00
2022-07-31T01:02:31.501Z,101683.13
2022-07-31T01:04:59.069Z,101688.53
2022-07-31T01:07:26.664Z,101683.13
2022-07-31T01:09:55.290Z,101678.56
2022-07-31T01:12:28.307Z,101679.41
2022-07-31T01:15:00.780Z,101668.59
2022-07-31T01:17:32.064Z,101667.78
2022-07-31T01:20:00.475Z,101665.69
2022-07-31T01:22:52.554Z,101665.69
2022-07-31T01:25:34.076Z,101670.25
2022-07-31T01:28:08.025Z,101655.13
2022-07-31T01:30:43.968Z,101671.06
2022-07-31T01:33:16.214Z,101669.19
2022-07-31T01:35:49.466Z,101669.81
2022-07-31T01:38:23.203Z,101665.25
2022-07-31T01:40:58.285Z,101670.03
2022-07-31T01:43:29.478Z,101662.38
2022-07-31T01:46:01.677Z,101667.19
2022-07-31T01:48:32.385Z,101670.31
2022-07-31T01:51:02.773Z,101668.84
2022-07-31T01:53:31.570Z,101667.00
2022-07-31T01:56:04.050Z,101669.69
2022-07-31T01:58:36.057Z,101667.22
2022-07-31T02:01:06.590Z,101661.00
2022-07-31T02:03:43.421Z,101661.59
2022-07-31T02:06:15.860Z,101653.50
2022-07-31T02:08:45.919Z,101667.63
2022-07-31T02:11:14.936Z,101669.25
2022-07-31T02:13:43.132Z,101670.91
2022-07-31T02:16:12.800Z,101659.88
2022-07-31T02:18:41.589Z,101658.03
2022-07-31T02:21:09.359Z,101659.09
2022-07-31T02:23:38.290Z,101659.88
2022-07-31T02:26:06.990Z,101659.88
2022-07-31T02:28:38.606Z,101656.41
2022-07-31T02:31:11.578Z,101654.72
2022-07-31T02:33:42.832Z,101659.53
2022-07-31T02:36:12.557Z,101660.34
2022-07-31T02:38:41.685Z,101659.53
2022-07-31T02:41:11.305Z,101656.84
2022-07-31T02:43:40.331Z,101656.59
2022-07-31T02:46:09.428Z,101650.16
2022-07-31T02:48:38.106Z,101651.59
2022-07-31T02:51:07.469Z,101644.34
2022-07-31T02:53:37.442Z,101650.56
2022-07-31T02:56:09.262Z,101649.50
2022-07-31T02:58:41.734Z,101644.09
2022-07-31T03:01:10.429Z,101650.31
2022-07-31T03:03:38.200Z,101641.41
2022-07-31T03:06:07.213Z,101647.44
2022-07-31T03:08:35.862Z,101644.94
2022-07-31T03:11:03.636Z,101637.88
2022-07-31T03:13:32.889Z,101639.78
2022-07-31T03:16:01.881Z,101633.75
2022-07-31T03:18:30.492Z,101633.16
2022-07-31T03:20:58.296Z,101634.00
2022-07-31T03:23:35.941Z,101625.28
2022-07-31T03:26:03.888Z,101630.66
2022-07-31T03:28:31.757Z,101635.84
2022-07-31T03:30:59.344Z,101627.78
2022-07-31T03:33:26.948Z,101633.16
2022-07-31T03:35:54.577Z,101626.72
2022-07-31T03:38:40.564Z,101631.28
2022-07-31T03:41:11.740Z,101621.78
2022-07-31T03:43:47.260Z,101630.91
2022-07-31T03:46:17.181Z,101626.53
2022-07-31T03:48:45.522Z,101624.53
2022-07-31T03:51:13.930Z,101630.34
2022-07-31T03:53:42.352Z,101632.81
2022-07-31T03:56:12.562Z,101630.50
2022-07-31T03:58:40.745Z,101631.94
2022-07-31T04:01:12.042Z,101635.25
2022-07-31T04:03:40.281Z,101644.09
2022-07-31T04:06:08.058Z,101636.59
2022-07-31T04:08:35.674Z,101641.28
2022-07-31T04:11:03.262Z,101640.16
2022-07-31T04:13:32.149Z,101646.72
2022-07-31T04:15:59.768Z,101652.66
2022-07-31T04:18:27.341Z,101646.13
2022-07-31T04:20:54.917Z,101635.50
2022-07-31T04:23:22.477Z,101640.22
2022-07-31T04:26:00.254Z,101641.44
2022-07-31T04:28:27.881Z,101639.69
2022-07-31T04:30:56.898Z,101642.53
2022-07-31T04:33:24.517Z,101640.44
2022-07-31T04:35:53.098Z,101637.06
2022-07-31T04:38:21.636Z,101638.72
2022-07-31T04:40:49.633Z,101651.53
2022-07-31T04:43:17.824Z,101644.25
2022-07-31T04:45:45.741Z,101649.59
2022-07-31T04:48:15.000Z,101640.63
2022-07-31T04:50:42.550Z,101637.81
2022-07-31T04:53:10.145Z,101641.63
2022-07-31T04:55:37.693Z,101648.59
2022-07-31T04:58:05.285Z,101639.53
2022-07-31T05:00:32.841Z,101644.00
2022-07-31T05:03:00.493Z,101643.31
2022-07-31T05:05:29.386Z,101637.56
2022-07-31T05:07:56.929Z,101635.94
2022-07-31T05:10:38.594Z,101638.38
2022-07-31T05:13:06.129Z,101642.16
2022-07-31T05:15:33.705Z,101634.38
2022-07-31T05:18:01.253Z,101635.97
2022-07-31T05:20:30.165Z,101636.94
2022-07-31T05:22:57.730Z,101628.88
2022-07-31T05:25:25.288Z,101630.47
2022-07-31T05:27:52.842Z,101618.81
2022-07-31T05:30:30.165Z,101613.47
2022-07-31T05:32:58.402Z,101619.84
2022-07-31T05:35:26.013Z,101627.59
2022-07-31T05:37:55.364Z,101626.03
2022-07-31T05:40:23.287Z,101621.59
2022-07-31T05:42:50.842Z,101608.44
2022-07-31T05:45:18.640Z,101608.97
2022-07-31T05:47:46.203Z,101608.63
2022-07-31T05:50:14.332Z,101606.47
2022-07-31T05:52:42.648Z,101609.16
2022-07-31T05:55:11.784Z,101595.88
2022-07-31T05:57:39.328Z,101607.91
2022-07-31T06:00:07.772Z,101606.56
2022-07-31T06:02:37.041Z,101594.06
2022-07-31T06:05:05.331Z,101610.66
2022-07-31T06:07:32.903Z,101607.09
2022-07-31T06:10:01.442Z,101601.44
2022-07-31T06:12:30.366Z,101594.44
2022-07-31T06:14:58.075Z,101602.75
2022-07-31T06:17:40.249Z,101609.78
2022-07-31T06:20:12.821Z,101605.66
2022-07-31T06:22:41.092Z,101593.50
2022-07-31T06:25:09.732Z,101594.34
2022-07-31T06:27:42.003Z,101595.00
2022-07-31T06:30:11.321Z,101597.69
2022-07-31T06:32:39.019Z,101594.56
2022-07-31T06:35:07.876Z,101591.16
2022-07-31T06:37:35.671Z,101599.44
2022-07-31T06:40:03.599Z,101600.13
2022-07-31T06:42:31.229Z,101601.63
2022-07-31T06:45:00.212Z,101592.41
2022-07-31T06:47:27.936Z,101583.19
2022-07-31T06:49:56.409Z,101580.84
2022-07-31T06:52:24.074Z,101598.03
2022-07-31T06:54:51.825Z,101592.75
2022-07-31T06:57:19.525Z,101579.03
2022-07-31T06:59:47.081Z,101581.81
2022-07-31T07:02:16.044Z,101580.09
2022-07-31T07:04:57.421Z,101575.22
2022-07-31T07:07:31.954Z,101572.63
2022-07-31T07:09:59.904Z,101567.50
2022-07-31T07:12:28.439Z,101565.34
2022-07-31T07:14:56.109Z,101575.53
2022-07-31T07:17:28.948Z,101565.22
2022-07-31T07:19:57.311Z,101569.16
2022-07-31T07:22:31.618Z,101577.03
2022-07-31T07:25:00.271Z,101561.69
2022-07-31T07:27:27.843Z,101566.84
2022-07-31T07:29:55.412Z,101565.47
2022-07-31T07:32:22.999Z,101564.19
2022-07-31T07:34:59.569Z,101568.25
2022-07-31T07:37:28.561Z,101566.44
2022-07-31T07:39:56.176Z,101569.31
2022-07-31T07:42:23.712Z,101567.69
2022-07-31T07:44:51.311Z,101567.81
2022-07-31T07:47:18.914Z,101570.56
2022-07-31T07:49:46.905Z,101559.06
2022-07-31T07:52:16.146Z,101558.34
2022-07-31T07:54:44.269Z,101558.94
2022-07-31T07:57:15.855Z,101551.09
2022-07-31T07:59:44.061Z,101545.31
2022-07-31T08:02:12.300Z,101545.44
2022-07-31T08:04:39.927Z,101544.94
2022-07-31T08:07:07.503Z,101548.53
2022-07-31T08:09:37.921Z,101543.25
2022-07-31T08:12:06.898Z,101550.03
2022-07-31T08:14:34.683Z,101544.28
2022-07-31T08:17:02.377Z,101551.28
2022-07-31T08:19:31.506Z,101550.94
2022-07-31T08:21:59.082Z,101548.53
2022-07-31T08:24:28.372Z,101558.31
2022-07-31T08:27:14.974Z,101556.06
2022-07-31T08:29:43.417Z,101556.34
2022-07-31T08:32:11.074Z,101555.50
2022-07-31T08:34:41.983Z,101549.59
2022-07-31T08:37:59.320Z,101562.63
2022-07-31T08:39:57.682Z,101561.00
2022-07-31T08:42:26.840Z,101557.97
2022-07-31T08:44:54.414Z,101549.75
2022-07-31T08:47:25.161Z,101542.13
2022-07-31T08:49:52.924Z,101541.25
2022-07-31T08:52:23.778Z,101539.88
2022-07-31T08:54:55.404Z,101548.81
2022-07-31T08:57:23.025Z,101544.41
2022-07-31T08:59:52.544Z,101548.78
2022-07-31T09:02:20.174Z,101537.13
2022-07-31T09:04:52.442Z,101538.22
2022-07-31T09:07:20.497Z,101535.38
2022-07-31T09:09:51.496Z,101535.41
2022-07-31T09:12:33.281Z,101534.44
2022-07-31T09:15:03.154Z,101528.72
2022-07-31T09:17:35.273Z,101536.38
2022-07-31T09:20:04.441Z,101528.00
2022-07-31T09:22:32.377Z,101528.47
2022-07-31T09:25:12.993Z,101527.47
2022-07-31T09:27:40.821Z,101531.00
2022-07-31T09:30:10.857Z,101528.47
2022-07-31T09:32:38.672Z,101533.03
2022-07-31T09:35:11.661Z,101527.84
2022-07-31T09:37:40.218Z,101523.06
2022-07-31T09:40:09.293Z,101518.63
2022-07-31T09:42:38.991Z,101522.88
2022-07-31T09:45:22.771Z,101513.13
2022-07-31T09:48:04.837Z,101514.25
2022-07-31T09:50:33.938Z,101518.72
2022-07-31T09:53:02.622Z,101517.50
2022-07-31T09:55:30.374Z,101516.69
2022-07-31T09:57:59.418Z,101518.19
2022-07-31T10:00:28.830Z,101514.25
2022-07-31T10:02:58.284Z,101504.09
2022-07-31T10:05:27.497Z,101502.88
2022-07-31T10:07:58.005Z,101511.19
2022-07-31T10:10:25.809Z,101497.66
2022-07-31T10:12:56.858Z,101501.75
2022-07-31T10:15:26.897Z,101502.53
2022-07-31T10:17:56.547Z,101500.13
2022-07-31T10:20:25.860Z,101497.91
2022-07-31T10:22:57.113Z,101494.81
2022-07-31T10:25:27.178Z,101497.09
2022-07-31T10:27:57.071Z,101490.63
2022-07-31T10:30:28.122Z,101489.72
2022-07-31T10:32:58.565Z,101491.88
2022-07-31T10:35:26.760Z,101489.53
2022-07-31T10:37:59.425Z,101485.97
2022-07-31T10:40:34.452Z,101484.06
2022-07-31T10:43:18.133Z,101483.16
2022-07-31T10:45:50.507Z,101469.19
2022-07-31T10:48:20.364Z,101469.34
2022-07-31T10:50:48.899Z,101464.50
2022-07-31T10:53:17.614Z,101456.03
2022-07-31T10:55:45.472Z,101459.03
2022-07-31T10:58:15.497Z,101460.03
2022-07-31T11:00:43.558Z,101456.22
2022-07-31T11:03:15.841Z,101450.59
2022-07-31T11:06:02.346Z,101447.66
2022-07-31T11:08:41.606Z,101446.22
2022-07-31T11:11:09.258Z,101441.63
2022-07-31T11:13:46.591Z,101435.78
2022-07-31T11:16:14.461Z,101436.53
2022-07-31T11:18:42.171Z,101430.69
2022-07-31T11:21:37.075Z,101429.88
2022-07-31T11:24:04.123Z,101425.59
2022-07-31T11:26:41.526Z,101414.78
2022-07-31T11:30:01.944Z,101418.09
2022-07-31T11:32:00.836Z,101410.94
2022-07-31T11:34:28.452Z,101408.69
2022-07-31T11:36:57.456Z,101407.97
2022-07-31T11:39:36.590Z,101406.13
2022-07-31T11:42:05.070Z,101418.34
2022-07-31T11:44:35.657Z,101414.00
2022-07-31T11:47:03.500Z,101406.88
2022-07-31T11:50:01.778Z,101400.63
2022-07-31T11:52:36.966Z,101408.19
2022-07-31T11:55:09.137Z,101400.34
2022-07-31T11:57:51.662Z,101403.69
2022-07-31T12:00:26.553Z,101410.88
2022-07-31T12:02:58.295Z,101405.31
2022-07-31T12:05:38.948Z,101402.75
2022-07-31T12:08:09.133Z,101406.44
2022-07-31T12:10:37.138Z,101397.63
2022-07-31T12:13:04.728Z,101395.31
2022-07-31T12:15:32.353Z,101395.00
2022-07-31T12:18:05.004Z,101387.19
2022-07-31T12:20:36.226Z,101378.25
2022-07-31T12:23:06.933Z,101387.06
2022-07-31T12:25:45.509Z,101381.06
2022-07-31T12:28:15.070Z,101376.22
2022-07-31T12:30:43.221Z,101374.50
2022-07-31T12:33:13.067Z,101372.16
2022-07-31T12:35:56.112Z,101363.72
2022-07-31T12:38:40.864Z,101359.97
2022-07-31T12:41:14.121Z,101365.09
2022-07-31T12:43:51.338Z,101366.69
2022-07-31T12:46:23.526Z,101364.94
2022-07-31T12:48:51.869Z,101358.72
2022-07-31T12:51:20.210Z,101357.25
2022-07-31T12:54:08.928Z,101352.09
2022-07-31T12:56:39.467Z,101356.69
2022-07-31T12:59:07.987Z,101356.84
2022-07-31T13:01:36.661Z,101350.19
2022-07-31T13:04:06.013Z,101349.97
2022-07-31T13:06:36.154Z,101356.31
2022-07-31T13:09:04.340Z,101351.06
2022-07-31T13:11:45.653Z,101341.22
2022-07-31T13:14:17.729Z,101338.09
2022-07-31T13:16:45.565Z,101334.13
2022-07-31T13:19:13.932Z,101336.34
2022-07-31T13:21:48.313Z,101328.78
2022-07-31T13:24:17.657Z,101329.59
2022-07-31T13:26:45.715Z,101326.13
2022-07-31T13:29:13.589Z,101327.34
2022-07-31T13:31:42.710Z,101325.78
2022-07-31T13:34:10.280Z,101323.16
2022-07-31T13:36:39.390Z,101322.47
2022-07-31T13:39:07.234Z,101329.75
2022-07-31T13:41:35.517Z,101325.41
2022-07-31T13:44:04.321Z,101325.44
2022-07-31T13:46:32.225Z,101310.59
2022-07-31T13:49:02.189Z,101321.50
2022-07-31T13:51:30.733Z,101314.03
2022-07-31T13:53:58.322Z,101311.91
2022-07-31T13:56:39.144Z,101306.63
2022-07-31T13:59:10.196Z,101304.81
2022-07-31T14:02:02.943Z,101300.06
2022-07-31T14:04:30.363Z,101304.06
2022-07-31T14:07:01.260Z,101293.38
2022-07-31T14:09:31.145Z,101294.22
2022-07-31T14:11:58.807Z,101295.53
2022-07-31T14:14:31.457Z,101290.41
2022-07-31T14:16:59.009Z,101287.81
2022-07-31T14:19:27.929Z,101286.84
2022-07-31T14:21:57.012Z,101283.19
2022-07-31T14:24:25.909Z,101287.41
2022-07-31T14:26:53.677Z,101286.09
2022-07-31T14:29:21.263Z,101281.34
2022-07-31T14:31:48.837Z,101283.34
2022-07-31T14:34:16.404Z,101284.59
2022-07-31T14:36:45.325Z,101280.31
2022-07-31T14:39:13.013Z,101276.63
2022-07-31T14:41:40.566Z,101280.81
2022-07-31T14:44:08.535Z,101277.66
2022-07-31T14:46:36.156Z,101277.72
2022-07-31T14:49:04.604Z,101279.75
2022-07-31T14:51:32.221Z,101286.34
2022-07-31T14:54:01.266Z,101294.63
2022-07-31T14:56:58.638Z,101288.41
2022-07-31T14:59:16.379Z,101294.41
2022-07-31T15:01:43.990Z,101300.72
2022-07-31T15:04:11.653Z,101299.63
2022-07-31T15:06:56.194Z,101307.28
2022-07-31T15:09:28.372Z,101306.72
2022-07-31T15:11:59.824Z,101307.00
2022-07-31T15:14:28.432Z,101310.50
2022-07-31T15:16:56.039Z,101323.84
2022-07-31T15:19:23.666Z,101318.66
2022-07-31T15:22:10.931Z,101319.16
2022-07-31T15:24:45.523Z,101307.66
2022-07-31T15:27:17.205Z,101317.47
2022-07-31T15:30:04.146Z,101313.34
2022-07-31T15:32:33.717Z,101310.06
2022-07-31T15:35:01.724Z,101308.16
2022-07-31T15:37:30.003Z,101314.69
2022-07-31T15:40:02.402Z,101313.50
2022-07-31T15:42:31.756Z,101312.66
2022-07-31T15:44:59.311Z,101307.97
2022-07-31T15:47:26.895Z,101313.38
2022-07-31T15:49:54.476Z,101307.53
2022-07-31T15:52:22.086Z,101308.88
2022-07-31T15:54:52.066Z,101309.66
2022-07-31T15:57:21.719Z,101308.56
2022-07-31T15:59:49.906Z,101307.19
2022-07-31T16:02:17.649Z,101310.94
2022-07-31T16:04:52.831Z,101307.09
2022-07-31T16:08:32.080Z,101308.66
2022-07-31T16:10:15.564Z,101311.59
2022-07-31T16:12:47.094Z,101301.81
2022-07-31T16:15:15.114Z,101311.34
2022-07-31T16:17:43.885Z,101304.56
2022-07-31T16:20:13.298Z,101301.84
2022-07-31T16:22:56.202Z,101309.69
2022-07-31T16:25:24.972Z,101296.59
2022-07-31T16:27:53.973Z,101299.28
2022-07-31T16:30:22.495Z,101294.06
2022-07-31T16:32:50.588Z,101295.03
2022-07-31T16:35:18.509Z,101284.59
2022-07-31T16:37:51.922Z,101285.94
2022-07-31T16:40:29.271Z,101289.72
2022-07-31T16:43:01.822Z,101284.03
2022-07-31T16:45:30.728Z,101285.63
2022-07-31T16:47:58.453Z,101287.25
2022-07-31T16:50:26.313Z,101285.28
2022-07-31T16:52:55.124Z,101276.00
2022-07-31T16:56:00.205Z,101274.59
2022-07-31T16:58:13.597Z,101276.94
2022-07-31T17:00:41.281Z,101274.94
2022-07-31T17:03:58.950Z,101272.09
2022-07-31T17:05:57.259Z,101271.22
2022-07-31T17:08:24.973Z,101267.09
2022-07-31T17:10:54.781Z,101269.22
2022-07-31T17:13:23.949Z,101262.63
2022-07-31T17:15:51.615Z,101265.34
2022-07-31T17:18:24.767Z,101273.00
2022-07-31T17:20:52.665Z,101271.00
2022-07-31T17:23:43.316Z,101262.88
2022-07-31T17:26:07.824Z,101266.91
2022-07-31T17:28:36.972Z,101274.81
2022-07-31T17:31:04.593Z,101270.41
2022-07-31T17:33:59.289Z,101267.94
2022-07-31T17:36:20.240Z,101259.19
2022-07-31T17:38:47.796Z,101263.69
2022-07-31T17:41:25.246Z,101263.00
2022-07-31T17:43:55.115Z,101267.84
2022-07-31T17:46:34.571Z,101262.59
2022-07-31T17:49:08.047Z,101264.94
2022-07-31T17:51:35.721Z,101271.84
2022-07-31T17:54:03.648Z,101267.09
2022-07-31T17:56:31.436Z,101272.38
2022-07-31T17:59:05.142Z,101271.94
2022-07-31T18:01:33.798Z,101274.06
2022-07-31T18:04:01.831Z,101278.66
2022-07-31T18:06:29.433Z,101275.13
2022-07-31T18:08:57.701Z,101267.19
2022-07-31T18:11:27.235Z,101284.25
2022-07-31T18:13:55.463Z,101269.56
2022-07-31T18:16:29.854Z,101269.72
2022-07-31T18:18:57.445Z,101268.31
2022-07-31T18:21:25.022Z,101272.16
2022-07-31T18:23:52.744Z,101272.81
2022-07-31T18:26:20.337Z,101268.63
2022-07-31T18:28:47.889Z,101268.69
2022-07-31T18:31:34.923Z,101265.88
2022-07-31T18:34:06.107Z,101267.19
2022-07-31T18:36:33.949Z,101260.53
2022-07-31T18:39:02.176Z,101270.69
2022-07-31T18:41:29.824Z,101263.03
2022-07-31T18:43:58.205Z,101261.31
2022-07-31T18:46:26.581Z,101264.47
2022-07-31T18:48:55.996Z,101261.22
2022-07-31T18:51:27.870Z,101256.75
2022-07-31T18:53:55.946Z,101259.59
2022-07-31T18:56:24.652Z,101255.50
2022-07-31T18:58:55.283Z,101254.06
2022-07-31T19:01:24.335Z,101249.47
2022-07-31T19:03:52.540Z,101241.28
2022-07-31T19:06:20.538Z,101246.59
2022-07-31T19:08:51.122Z,101228.38
2022-07-31T19:11:19.434Z,101227.22
2022-07-31T19:13:47.621Z,101237.06
2022-07-31T19:16:15.797Z,101228.88
2022-07-31T19:18:45.152Z,101220.88
2022-07-31T19:21:21.236Z,101233.44
2022-07-31T19:23:52.974Z,101223.94
2022-07-31T19:26:20.829Z,101216.09
2022-07-31T19:28:48.383Z,101221.94
2022-07-31T19:31:16.062Z,101218.75
2022-07-31T19:33:43.991Z,101228.31
2022-07-31T19:36:12.302Z,101226.66
2022-07-31T19:38:44.016Z,101228.31
2022-07-31T19:41:13.761Z,101224.53
2022-07-31T19:43:41.406Z,101219.13
2022-07-31T19:46:11.477Z,101228.50
2022-07-31T19:48:40.824Z,101229.56
2022-07-31T19:51:08.586Z,101229.56
2022-07-31T19:53:36.233Z,101231.47
2022-07-31T19:56:05.515Z,101232.25
2022-07-31T19:58:35.671Z,101235.78
2022-07-31T20:01:04.056Z,101235.09
2022-07-31T20:03:31.877Z,101221.13
2022-07-31T20:05:59.581Z,101225.81
2022-07-31T20:08:28.118Z,101227.22
2022-07-31T20:11:02.948Z,101228.41
2022-07-31T20:13:31.084Z,101230.41
2022-07-31T20:16:00.153Z,101229.81
2022-07-31T20:18:30.624Z,101222.91
2022-07-31T20:21:00.023Z,101230.16
2022-07-31T20:23:28.587Z,101230.16
2022-07-31T20:25:57.303Z,101232.88
2022-07-31T20:28:28.864Z,101230.53
2022-07-31T20:30:56.562Z,101228.41
2022-07-31T20:33:25.535Z,101228.19
2022-07-31T20:35:53.165Z,101228.19
2022-07-31T20:38:21.773Z,101227.34
2022-07-31T20:40:53.502Z,101226.88
2022-07-31T20:43:23.253Z,101216.06
2022-07-31T20:45:51.377Z,101212.28
2022-07-31T20:48:21.768Z,101214.19
2022-07-31T20:50:50.888Z,101216.28
2022-07-31T20:53:19.280Z,101214.41
2022-07-31T20:55:49.644Z,101213.03
2022-07-31T20:58:17.659Z,101213.03
2022-07-31T21:00:47.108Z,101210.06
2022-07-31T21:03:14.741Z,101201.97
2022-07-31T21:05:42.345Z,101207.34
2022-07-31T21:08:11.883Z,101204.09
2022-07-31T21:10:39.837Z,101203.59
2022-07-31T21:13:07.454Z,101206.66
2022-07-31T21:15:41.752Z,101201.25
2022-07-31T21:18:12.393Z,101200.22
2022-07-31T21:20:51.494Z,101195.13
2022-07-31T21:23:22.057Z,101192.41
2022-07-31T21:25:49.955Z,101191.63
2022-07-31T21:28:18.172Z,101189.72
2022-07-31T21:30:46.295Z,101180.81
2022-07-31T21:33:14.125Z,101179.16
2022-07-31T21:35:42.339Z,101178.13
2022-07-31T21:38:12.170Z,101174.59
2022-07-31T21:40:42.417Z,101176.47
2022-07-31T21:43:10.337Z,101181.53
2022-07-31T21:45:49.669Z,101176.69
2022-07-31T21:48:24.699Z,101178.13
2022-07-31T21:50:52.710Z,101182.69
2022-07-31T21:53:20.274Z,101176.00
2022-07-31T21:55:49.241Z,101176.81
2022-07-31T21:58:17.180Z,101176.22
2022-07-31T22:00:45.079Z,101183.03
2022-07-31T22:03:13.152Z,101176.81
2022-07-31T22:05:58.261Z,101183.84
2022-07-31T22:08:25.810Z,101177.66
2022-07-31T22:10:54.849Z,101172.81
2022-07-31T22:13:22.504Z,101173.63
2022-07-31T22:15:55.526Z,101173.84
2022-07-31T22:18:28.578Z,101170.09
2022-07-31T22:20:56.561Z,101175.50
2022-07-31T22:23:24.578Z,101176.09
2022-07-31T22:25:52.700Z,101170.69
2022-07-31T22:28:23.087Z,101178.78
2022-07-31T22:30:51.328Z,101176.09
2022-07-31T22:33:19.163Z,101181.25
2022-07-31T22:35:58.218Z,101176.69
2022-07-31T22:38:28.244Z,101178.31
2022-07-31T22:40:55.923Z,101181.84
2022-07-31T22:44:12.089Z,101176.69
2022-07-31T22:46:13.509Z,101175.03
2022-07-31T22:48:41.603Z,101179.59
2022-07-31T22:51:10.617Z,101185.00
2022-07-31T22:53:42.725Z,101179.38
2022-07-31T22:56:10.261Z,101180.44
2022-07-31T22:58:39.246Z,101183.13
2022-07-31T23:01:06.854Z,101187.25
2022-07-31T23:03:34.472Z,101184.53
2022-07-31T23:06:30.893Z,101181.84
2022-07-31T23:08:52.018Z,101191.34
2022-07-31T23:11:22.699Z,101194.03
2022-07-31T23:13:51.618Z,101188.63
2022-07-31T23:16:20.158Z,101194.50
2022-07-31T23:18:47.944Z,101194.50
2022-07-31T23:21:15.528Z,101197.47
2022-07-31T23:23:48.665Z,101193.69
2022-07-31T23:26:18.061Z,101197.22
2022-07-31T23:28:45.786Z,101195.59
2022-07-31T23:31:14.934Z,101191.72
2022-07-31T23:33:43.093Z,101197.13
2022-07-31T23:36:10.680Z,101194.66
2022-07-31T23:38:38.328Z,101190.91
2022-07-31T23:41:05.964Z,101194.66
2022-07-31T23:43:32.568Z,101189.25
2022-07-31T23:46:00.242Z,101188.44
2022-07-31T23:48:30.071Z,101188.94
2022-07-31T23:50:57.882Z,101188.09
2022-07-31T23:53:25.457Z,101187.50
2022-07-31T23:55:53.030Z,101182.69
2022-07-31T23:58:20.835Z,101180.69
